createdAt,value
2022-08-05T00:00:00.450Z,1009.45
2022-08-05T00:01:20.044Z,1009.42
2022-08-05T00:02:07.652Z,1009.47
2022-08-05T00:03:00.529Z,1009.47
2022-08-05T00:03:59.500Z,1009.51
2022-08-05T00:04:59.498Z,1009.51
2022-08-05T00:06:04.579Z,1009.46
2022-08-05T00:07:00.505Z,1009.46
2022-08-05T00:08:01.573Z,1009.39
2022-08-05T00:08:59.454Z,1009.42
2022-08-05T00:09:59.482Z,1009.45
2022-08-05T00:11:00.294Z,1009.50
2022-08-05T00:11:59.846Z,1009.56
2022-08-05T00:12:59.393Z,1009.56
2022-08-05T00:13:59.428Z,1009.57
2022-08-05T00:14:59.425Z,1009.57
2022-08-05T00:16:00.594Z,1009.61
2022-08-05T00:17:01.942Z,1009.61
2022-08-05T00:17:59.358Z,1009.65
2022-08-05T00:18:59.346Z,1009.64
2022-08-05T00:20:02.800Z,1009.68
2022-08-05T00:20:59.320Z,1009.67
2022-08-05T00:21:59.306Z,1009.73
2022-08-05T00:23:02.565Z,1009.73
2022-08-05T00:24:10.639Z,1009.69
2022-08-05T00:25:00.298Z,1009.74
2022-08-05T00:25:59.266Z,1009.69
2022-08-05T00:26:59.278Z,1009.66
2022-08-05T00:27:59.250Z,1009.65
2022-08-05T00:28:59.252Z,1009.67
2022-08-05T00:29:59.213Z,1009.66
2022-08-05T00:31:04.162Z,1009.73
2022-08-05T00:32:13.508Z,1009.67
2022-08-05T00:33:00.182Z,1009.68
2022-08-05T00:34:54.291Z,1009.68
2022-08-05T00:35:06.889Z,1009.71
2022-08-05T00:36:16.607Z,1009.72
2022-08-05T00:37:12.996Z,1009.72
2022-08-05T00:38:00.153Z,1009.69
2022-08-05T00:38:59.477Z,1009.72
2022-08-05T00:39:59.419Z,1009.71
2022-08-05T00:40:59.104Z,1009.76
2022-08-05T00:41:59.090Z,1009.73
2022-08-05T00:42:59.093Z,1009.78
2022-08-05T00:43:59.072Z,1009.69
2022-08-05T00:44:59.401Z,1009.75
2022-08-05T00:45:59.063Z,1009.68
2022-08-05T00:47:01.990Z,1009.71
2022-08-05T00:48:05.658Z,1009.67
2022-08-05T00:49:00.025Z,1009.67
2022-08-05T00:49:59.020Z,1009.62
2022-08-05T00:50:59.009Z,1009.61
2022-08-05T00:51:58.977Z,1009.59
2022-08-05T00:52:58.966Z,1009.59
2022-08-05T00:54:02.649Z,1009.58
2022-08-05T00:54:58.950Z,1009.60
2022-08-05T00:55:58.962Z,1009.63
2022-08-05T00:56:58.936Z,1009.65
2022-08-05T00:57:59.380Z,1009.72
2022-08-05T00:58:58.898Z,1009.74
2022-08-05T00:59:58.938Z,1009.74
2022-08-05T01:00:58.948Z,1009.73
2022-08-05T01:01:58.895Z,1009.79
2022-08-05T01:02:59.874Z,1009.83
2022-08-05T01:03:58.861Z,1009.84
2022-08-05T01:04:58.831Z,1009.87
2022-08-05T01:05:58.849Z,1009.82
2022-08-05T01:06:58.805Z,1009.80
2022-08-05T01:08:30.768Z,1009.80
2022-08-05T01:08:59.853Z,1009.80
2022-08-05T01:09:58.795Z,1009.74
2022-08-05T01:10:58.827Z,1009.74
2022-08-05T01:12:01.919Z,1009.73
2022-08-05T01:13:05.042Z,1009.68
2022-08-05T01:14:00.064Z,1009.70
2022-08-05T01:14:58.725Z,1009.65
2022-08-05T01:15:59.768Z,1009.59
2022-08-05T01:16:58.704Z,1009.62
2022-08-05T01:17:58.698Z,1009.65
2022-08-05T01:18:58.682Z,1009.67
2022-08-05T01:20:03.014Z,1009.72
2022-08-05T01:20:58.655Z,1009.69
2022-08-05T01:21:58.686Z,1009.74
2022-08-05T01:22:58.658Z,1009.70
2022-08-05T01:23:58.627Z,1009.71
2022-08-05T01:24:58.616Z,1009.71
2022-08-05T01:25:58.607Z,1009.70
2022-08-05T01:26:58.623Z,1009.67
2022-08-05T01:27:58.599Z,1009.69
2022-08-05T01:29:00.539Z,1009.72
2022-08-05T01:29:59.558Z,1009.68
2022-08-05T01:30:58.539Z,1009.67
2022-08-05T01:31:58.555Z,1009.67
2022-08-05T01:32:58.530Z,1009.60
2022-08-05T01:33:58.549Z,1009.62
2022-08-05T01:34:58.510Z,1009.56
2022-08-05T01:35:58.491Z,1009.54
2022-08-05T01:37:00.707Z,1009.51
2022-08-05T01:37:58.472Z,1009.53
2022-08-05T01:39:01.015Z,1009.55
2022-08-05T01:39:58.830Z,1009.60
2022-08-05T01:40:58.445Z,1009.58
2022-08-05T01:41:58.443Z,1009.58
2022-08-05T01:42:58.414Z,1009.65
2022-08-05T01:43:58.403Z,1009.71
2022-08-05T01:44:59.065Z,1009.68
2022-08-05T01:45:58.392Z,1009.73
2022-08-05T01:46:59.395Z,1009.70
2022-08-05T01:47:58.362Z,1009.79
2022-08-05T01:48:58.344Z,1009.79
2022-08-05T01:50:01.312Z,1009.81
2022-08-05T01:50:58.324Z,1009.85
2022-08-05T01:51:59.339Z,1009.81
2022-08-05T01:52:58.317Z,1009.85
2022-08-05T01:53:58.897Z,1009.93
2022-08-05T01:54:58.286Z,1009.98
2022-08-05T01:55:58.295Z,1009.95
2022-08-05T01:58:09.943Z,1010.06
2022-08-05T01:58:10.383Z,1010.02
2022-08-05T01:58:59.247Z,1010.12
2022-08-05T01:59:58.243Z,1010.14
2022-08-05T02:00:58.247Z,1010.26
2022-08-05T02:01:58.332Z,1010.30
2022-08-05T02:02:58.201Z,1010.37
2022-08-05T02:03:58.189Z,1010.44
2022-08-05T02:04:58.185Z,1010.57
2022-08-05T02:06:00.814Z,1010.66
2022-08-05T02:06:59.210Z,1010.72
2022-08-05T02:08:01.110Z,1010.80
2022-08-05T02:08:59.271Z,1010.93
2022-08-05T02:09:58.119Z,1010.98
2022-08-05T02:10:58.116Z,1010.98
2022-08-05T02:11:58.136Z,1011.08
2022-08-05T02:12:58.457Z,1011.09
2022-08-05T02:13:58.097Z,1011.05
2022-08-05T02:14:58.063Z,1011.05
2022-08-05T02:15:58.052Z,1011.01
2022-08-05T02:16:58.033Z,1011.00
2022-08-05T02:18:30.819Z,1011.02
2022-08-05T02:18:59.049Z,1010.97
2022-08-05T02:19:58.024Z,1010.96
2022-08-05T02:20:58.913Z,1010.93
2022-08-05T02:21:57.995Z,1010.93
2022-08-05T02:22:57.967Z,1010.90
2022-08-05T02:23:57.976Z,1010.90
2022-08-05T02:24:57.946Z,1010.86
2022-08-05T02:25:57.946Z,1010.83
2022-08-05T02:26:57.965Z,1010.87
2022-08-05T02:28:00.382Z,1010.84
2022-08-05T02:28:58.356Z,1010.86
2022-08-05T02:29:58.955Z,1010.80
2022-08-05T02:30:57.918Z,1010.86
2022-08-05T02:31:57.877Z,1010.78
2022-08-05T02:32:57.859Z,1010.71
2022-08-05T02:33:58.121Z,1010.69
2022-08-05T02:34:57.839Z,1010.64
2022-08-05T02:36:00.641Z,1010.64
2022-08-05T02:36:58.071Z,1010.67
2022-08-05T02:37:59.108Z,1010.71
2022-08-05T02:38:57.882Z,1010.68
2022-08-05T02:39:57.791Z,1010.67
2022-08-05T02:40:57.801Z,1010.57
2022-08-05T02:42:01.243Z,1010.64
2022-08-05T02:42:57.773Z,1010.68
2022-08-05T02:44:02.975Z,1010.74
2022-08-05T02:44:58.774Z,1010.74
2022-08-05T02:45:57.770Z,1010.81
2022-08-05T02:47:00.435Z,1010.81
2022-08-05T02:48:06.452Z,1010.78
2022-08-05T02:48:58.715Z,1010.72
2022-08-05T02:49:57.697Z,1010.69
2022-08-05T02:50:57.669Z,1010.62
2022-08-05T02:52:03.688Z,1010.55
2022-08-05T02:52:58.641Z,1010.47
2022-08-05T02:54:04.026Z,1010.42
2022-08-05T02:55:02.053Z,1010.43
2022-08-05T02:55:59.934Z,1010.45
2022-08-05T02:56:57.605Z,1010.42
2022-08-05T02:58:09.191Z,1010.44
2022-08-05T02:58:58.598Z,1010.44
2022-08-05T02:59:57.606Z,1010.40
2022-08-05T03:00:57.561Z,1010.33
2022-08-05T03:01:57.590Z,1010.27
2022-08-05T03:02:57.549Z,1010.26
2022-08-05T03:04:04.226Z,1010.24
2022-08-05T03:04:59.457Z,1010.14
2022-08-05T03:06:53.999Z,1010.08
2022-08-05T03:06:59.611Z,1009.97
2022-08-05T03:08:07.332Z,1009.85
2022-08-05T03:08:58.474Z,1009.81
2022-08-05T03:09:58.122Z,1009.74
2022-08-05T03:11:53.349Z,1009.68
2022-08-05T03:11:58.471Z,1009.63
2022-08-05T03:13:51.054Z,1009.52
2022-08-05T03:14:32.858Z,1009.47
2022-08-05T03:15:31.864Z,1009.40
2022-08-05T03:16:31.911Z,1009.28
2022-08-05T03:17:31.821Z,1009.25
2022-08-05T03:18:31.804Z,1009.21
2022-08-05T03:19:34.438Z,1009.24
2022-08-05T03:20:31.802Z,1009.24
2022-08-05T03:21:33.204Z,1009.33
2022-08-05T03:22:32.861Z,1009.38
2022-08-05T03:23:31.745Z,1009.35
2022-08-05T03:24:31.749Z,1009.41
2022-08-05T03:26:03.702Z,1009.38
2022-08-05T03:26:32.821Z,1009.41
2022-08-05T03:27:59.641Z,1009.48
2022-08-05T03:28:32.721Z,1009.43
2022-08-05T03:29:45.551Z,1009.40
2022-08-05T03:30:33.582Z,1009.34
2022-08-05T03:31:56.744Z,1009.33
2022-08-05T03:32:32.656Z,1009.22
2022-08-05T03:33:32.297Z,1009.17
2022-08-05T03:34:32.628Z,1009.22
2022-08-05T03:35:34.055Z,1009.32
2022-08-05T03:36:32.642Z,1009.36
2022-08-05T03:37:31.591Z,1009.53
2022-08-05T03:38:33.106Z,1009.61
2022-08-05T03:39:35.188Z,1009.74
2022-08-05T03:40:32.847Z,1009.94
2022-08-05T03:41:33.009Z,1010.03
2022-08-05T03:42:32.269Z,1010.08
2022-08-05T03:44:08.972Z,1010.19
2022-08-05T03:44:32.522Z,1010.19
2022-08-05T03:45:31.502Z,1010.26
2022-08-05T03:46:32.740Z,1010.25
2022-08-05T03:47:35.448Z,1010.27
2022-08-05T03:48:35.327Z,1010.28
2022-08-05T03:49:51.492Z,1010.33
2022-08-05T03:50:32.458Z,1010.33
2022-08-05T03:52:37.090Z,1010.40
2022-08-05T03:52:49.071Z,1010.33
2022-08-05T03:55:34.604Z,1010.42
2022-08-05T03:55:50.265Z,1010.40
2022-08-05T03:56:09.454Z,1010.40
2022-08-05T03:56:35.006Z,1010.43
2022-08-05T03:57:42.402Z,1010.38
2022-08-05T03:58:32.374Z,1010.39
2022-08-05T03:59:47.318Z,1010.44
2022-08-05T04:00:33.307Z,1010.43
2022-08-05T04:01:32.339Z,1010.48
2022-08-05T04:02:38.487Z,1010.53
2022-08-05T04:03:32.310Z,1010.53
2022-08-05T04:04:31.307Z,1010.51
2022-08-05T04:05:33.934Z,1010.60
2022-08-05T04:06:31.277Z,1010.60
2022-08-05T04:07:33.051Z,1010.60
2022-08-05T04:08:36.298Z,1010.54
2022-08-05T04:09:32.243Z,1010.58
2022-08-05T04:10:37.374Z,1010.55
2022-08-05T04:11:50.745Z,1010.57
2022-08-05T04:12:32.212Z,1010.54
2022-08-05T04:13:51.247Z,1010.52
2022-08-05T04:14:32.206Z,1010.49
2022-08-05T04:15:33.132Z,1010.49
2022-08-05T04:16:32.223Z,1010.41
2022-08-05T04:17:55.569Z,1010.45
2022-08-05T04:18:32.307Z,1010.44
2022-08-05T04:19:31.231Z,1010.44
2022-08-05T04:20:31.136Z,1010.39
2022-08-05T04:22:09.813Z,1010.35
2022-08-05T04:22:32.114Z,1010.31
2022-08-05T04:24:05.396Z,1010.37
2022-08-05T04:24:32.106Z,1010.26
2022-08-05T04:25:57.057Z,1010.25
2022-08-05T04:26:32.345Z,1010.23
2022-08-05T04:27:41.793Z,1010.18
2022-08-05T04:28:32.075Z,1010.09
2022-08-05T04:29:31.028Z,1010.05
2022-08-05T04:30:31.016Z,1009.91
2022-08-05T04:31:38.490Z,1009.83
2022-08-05T04:32:33.066Z,1009.79
2022-08-05T04:33:54.282Z,1009.81
2022-08-05T04:34:34.687Z,1009.94
2022-08-05T04:36:16.641Z,1010.02
2022-08-05T04:36:46.324Z,1010.05
2022-08-05T04:38:01.488Z,1010.12
2022-08-05T04:38:39.667Z,1010.18
2022-08-05T04:39:32.223Z,1010.17
2022-08-05T04:40:30.928Z,1010.15
2022-08-05T04:41:37.081Z,1010.15
2022-08-05T04:42:31.931Z,1010.15
2022-08-05T04:43:30.871Z,1010.12
2022-08-05T04:44:30.887Z,1010.14
2022-08-05T04:45:48.322Z,1010.17
2022-08-05T04:46:31.896Z,1010.17
2022-08-05T04:47:30.853Z,1010.14
2022-08-05T04:48:31.834Z,1010.16
2022-08-05T04:49:38.894Z,1010.13
2022-08-05T04:50:37.309Z,1010.05
2022-08-05T04:51:31.785Z,1009.99
2022-08-05T04:52:34.156Z,1009.87
2022-08-05T04:53:33.499Z,1009.77
2022-08-05T04:54:30.811Z,1009.72
2022-08-05T04:56:00.106Z,1009.68
2022-08-05T04:56:34.299Z,1009.72
2022-08-05T04:57:37.183Z,1009.73
2022-08-05T04:58:31.717Z,1009.74
2022-08-05T04:59:38.830Z,1009.78
2022-08-05T05:00:31.706Z,1009.80
2022-08-05T05:02:04.054Z,1009.87
2022-08-05T05:02:41.259Z,1009.87
2022-08-05T05:03:41.702Z,1009.90
2022-08-05T05:04:31.680Z,1009.93
2022-08-05T05:05:30.634Z,1010.00
2022-08-05T05:06:40.376Z,1010.05
2022-08-05T05:07:32.123Z,1010.11
2022-08-05T05:08:30.633Z,1010.14
2022-08-05T05:09:30.596Z,1010.15
2022-08-05T05:10:30.626Z,1010.18
2022-08-05T05:11:41.383Z,1010.12
2022-08-05T05:12:31.568Z,1010.12
2022-08-05T05:13:32.454Z,1010.17
2022-08-05T05:14:32.296Z,1010.05
2022-08-05T05:15:56.594Z,1010.08
2022-08-05T05:16:31.543Z,1010.07
2022-08-05T05:17:55.748Z,1010.11
2022-08-05T05:18:33.824Z,1010.14
2022-08-05T05:19:37.240Z,1010.21
2022-08-05T05:20:31.482Z,1010.21
2022-08-05T05:21:33.115Z,1010.19
2022-08-05T05:22:30.480Z,1010.18
2022-08-05T05:23:39.057Z,1010.15
2022-08-05T05:24:57.794Z,1010.16
2022-08-05T05:25:33.028Z,1010.11
2022-08-05T05:26:33.039Z,1010.09
2022-08-05T05:27:44.231Z,1010.09
2022-08-05T05:28:31.414Z,1010.12
2022-08-05T05:30:04.581Z,1010.15
2022-08-05T05:30:33.594Z,1010.19
2022-08-05T05:31:35.782Z,1010.23
2022-08-05T05:32:30.329Z,1010.33
2022-08-05T05:33:30.384Z,1010.32
2022-08-05T05:34:31.320Z,1010.33
2022-08-05T05:35:34.219Z,1010.35
2022-08-05T05:36:30.323Z,1010.37
2022-08-05T05:37:45.499Z,1010.35
2022-08-05T05:38:31.279Z,1010.36
2022-08-05T05:39:34.507Z,1010.36
2022-08-05T05:40:32.068Z,1010.37
2022-08-05T05:41:40.343Z,1010.40
2022-08-05T05:42:31.214Z,1010.39
2022-08-05T05:43:58.321Z,1010.43
2022-08-05T05:44:36.594Z,1010.45
2022-08-05T05:45:31.180Z,1010.46
2022-08-05T05:46:30.175Z,1010.45
2022-08-05T05:48:06.246Z,1010.49
2022-08-05T05:48:31.188Z,1010.43
2022-08-05T05:49:30.129Z,1010.40
2022-08-05T05:50:30.147Z,1010.44
2022-08-05T05:51:30.116Z,1010.52
2022-08-05T05:52:33.170Z,1010.48
2022-08-05T05:53:31.101Z,1010.56
2022-08-05T05:54:50.607Z,1010.59
2022-08-05T05:55:51.114Z,1010.60
2022-08-05T05:56:32.691Z,1010.66
2022-08-05T05:57:42.654Z,1010.63
2022-08-05T05:58:32.201Z,1010.72
2022-08-05T05:59:30.016Z,1010.71
2022-08-05T06:00:34.202Z,1010.75
2022-08-05T06:01:37.539Z,1010.76
2022-08-05T06:02:36.811Z,1010.81
2022-08-05T06:04:00.342Z,1010.88
2022-08-05T06:04:31.042Z,1010.82
2022-08-05T06:05:29.971Z,1010.79
2022-08-05T06:06:31.053Z,1010.76
2022-08-05T06:07:41.976Z,1010.80
2022-08-05T06:08:32.600Z,1010.82
2022-08-05T06:09:59.998Z,1010.78
2022-08-05T06:10:36.519Z,1010.83
2022-08-05T06:11:30.884Z,1010.81
2022-08-05T06:12:29.889Z,1010.79
2022-08-05T06:13:29.873Z,1010.80
2022-08-05T06:14:30.949Z,1010.81
2022-08-05T06:16:28.553Z,1010.82
2022-08-05T06:16:36.681Z,1010.81
2022-08-05T06:17:31.176Z,1010.81
2022-08-05T06:18:30.862Z,1010.84
2022-08-05T06:19:34.419Z,1010.85
2022-08-05T06:20:30.802Z,1010.88
2022-08-05T06:21:36.462Z,1010.83
2022-08-05T06:22:30.774Z,1010.77
2022-08-05T06:23:43.483Z,1010.78
2022-08-05T06:24:30.791Z,1010.76
2022-08-05T06:26:12.114Z,1010.68
2022-08-05T06:26:31.813Z,1010.68
2022-08-05T06:28:09.042Z,1010.65
2022-08-05T06:28:30.701Z,1010.74
2022-08-05T06:29:46.265Z,1010.71
2022-08-05T06:30:30.683Z,1010.79
2022-08-05T06:31:30.612Z,1010.85
2022-08-05T06:32:29.695Z,1010.86
2022-08-05T06:33:33.403Z,1010.85
2022-08-05T06:34:30.641Z,1010.89
2022-08-05T06:36:06.906Z,1010.98
2022-08-05T06:36:53.511Z,1010.98
2022-08-05T06:37:55.917Z,1011.03
2022-08-05T06:38:36.586Z,1011.00
2022-08-05T06:39:30.580Z,1011.06
2022-08-05T06:40:32.629Z,1011.09
2022-08-05T06:41:29.559Z,1011.21
2022-08-05T06:42:30.576Z,1011.18
2022-08-05T06:43:58.488Z,1011.19
2022-08-05T06:44:30.556Z,1011.14
2022-08-05T06:45:44.440Z,1011.08
2022-08-05T06:46:30.723Z,1011.11
2022-08-05T06:48:11.971Z,1011.11
2022-08-05T06:48:53.408Z,1011.08
2022-08-05T06:50:00.789Z,1011.06
2022-08-05T06:50:30.663Z,1011.16
2022-08-05T06:51:30.775Z,1011.12
2022-08-05T06:52:37.153Z,1011.13
2022-08-05T06:53:30.416Z,1011.09
2022-08-05T06:54:30.419Z,1011.09
2022-08-05T06:55:29.396Z,1011.11
2022-08-05T06:56:34.345Z,1011.10
2022-08-05T06:58:03.547Z,1011.11
2022-08-05T06:58:36.130Z,1011.18
2022-08-05T06:59:30.361Z,1011.19
2022-08-05T07:00:30.351Z,1011.22
2022-08-05T07:01:32.288Z,1011.22
2022-08-05T07:02:29.320Z,1011.17
2022-08-05T07:03:32.442Z,1011.21
2022-08-05T07:04:30.261Z,1011.15
2022-08-05T07:05:37.252Z,1011.16
2022-08-05T07:06:30.313Z,1011.21
2022-08-05T07:07:35.489Z,1011.24
2022-08-05T07:08:30.271Z,1011.26
2022-08-05T07:09:32.440Z,1011.34
2022-08-05T07:10:32.458Z,1011.43
2022-08-05T07:11:29.254Z,1011.44
2022-08-05T07:12:29.496Z,1011.47
2022-08-05T07:13:39.539Z,1011.50
2022-08-05T07:14:30.712Z,1011.54
2022-08-05T07:15:34.647Z,1011.54
2022-08-05T07:18:00.012Z,1011.58
2022-08-05T07:18:00.089Z,1011.56
2022-08-05T07:18:30.819Z,1011.56
2022-08-05T07:20:10.958Z,1011.53
2022-08-05T07:20:33.502Z,1011.56
2022-08-05T07:21:29.163Z,1011.55
2022-08-05T07:22:30.506Z,1011.50
2022-08-05T07:23:29.676Z,1011.49
2022-08-05T07:24:29.959Z,1011.52
2022-08-05T07:25:55.961Z,1011.51
2022-08-05T07:26:30.236Z,1011.52
2022-08-05T07:27:57.721Z,1011.56
2022-08-05T07:28:30.061Z,1011.57
2022-08-05T07:30:24.083Z,1011.59
2022-08-05T07:30:32.681Z,1011.58
2022-08-05T07:31:40.975Z,1011.59
2022-08-05T07:32:30.992Z,1011.60
2022-08-05T07:33:37.267Z,1011.59
2022-08-05T07:34:29.960Z,1011.58
2022-08-05T07:36:03.642Z,1011.61
2022-08-05T07:36:30.001Z,1011.61
2022-08-05T07:37:35.971Z,1011.61
2022-08-05T07:38:33.312Z,1011.60
2022-08-05T07:40:25.863Z,1011.64
2022-08-05T07:40:32.958Z,1011.62
2022-08-05T07:42:14.677Z,1011.68
2022-08-05T07:42:33.549Z,1011.70
2022-08-05T07:43:28.889Z,1011.77
2022-08-05T07:44:28.862Z,1011.82
2022-08-05T07:45:56.712Z,1011.82
2022-08-05T07:46:30.596Z,1011.85
2022-08-05T07:47:30.431Z,1011.85
2022-08-05T07:49:02.810Z,1011.88
2022-08-05T07:49:29.809Z,1011.91
2022-08-05T07:50:29.018Z,1011.96
2022-08-05T07:51:36.835Z,1011.99
2022-08-05T07:52:29.815Z,1011.98
2022-08-05T07:53:36.983Z,1011.95
2022-08-05T07:54:33.639Z,1012.00
2022-08-05T07:56:05.627Z,1012.03
2022-08-05T07:57:00.611Z,1012.08
2022-08-05T07:57:58.840Z,1012.11
2022-08-05T07:58:54.959Z,1012.15
2022-08-05T07:59:38.981Z,1012.16
2022-08-05T08:00:29.676Z,1012.20
2022-08-05T08:01:29.981Z,1012.23
2022-08-05T08:02:31.140Z,1012.22
2022-08-05T08:03:44.786Z,1012.19
2022-08-05T08:04:37.272Z,1012.20
2022-08-05T08:05:29.652Z,1012.12
2022-08-05T08:06:28.634Z,1012.19
2022-08-05T08:07:29.201Z,1012.18
2022-08-05T08:08:29.594Z,1012.20
2022-08-05T08:09:29.173Z,1012.20
2022-08-05T08:10:28.581Z,1012.20
2022-08-05T08:11:47.396Z,1012.23
2022-08-05T08:12:48.690Z,1012.23
2022-08-05T08:13:29.601Z,1012.26
2022-08-05T08:14:29.524Z,1012.29
2022-08-05T08:16:33.276Z,1012.28
2022-08-05T08:16:50.307Z,1012.29
2022-08-05T08:17:29.515Z,1012.31
2022-08-05T08:18:28.526Z,1012.29
2022-08-05T08:20:23.441Z,1012.31
2022-08-05T08:20:59.690Z,1012.31
2022-08-05T08:21:29.462Z,1012.30
2022-08-05T08:22:28.444Z,1012.37
2022-08-05T08:24:01.969Z,1012.37
2022-08-05T08:24:51.498Z,1012.39
2022-08-05T08:25:59.049Z,1012.39
2022-08-05T08:26:30.161Z,1012.39
2022-08-05T08:27:40.021Z,1012.41
2022-08-05T08:28:36.482Z,1012.37
2022-08-05T08:30:05.038Z,1012.34
2022-08-05T08:30:37.722Z,1012.37
2022-08-05T08:31:29.391Z,1012.39
2022-08-05T08:32:28.402Z,1012.40
2022-08-05T08:33:28.376Z,1012.44
2022-08-05T08:34:30.177Z,1012.44
2022-08-05T08:35:28.330Z,1012.46
2022-08-05T08:36:41.881Z,1012.47
2022-08-05T08:37:29.289Z,1012.48
2022-08-05T08:38:35.219Z,1012.47
2022-08-05T08:39:29.314Z,1012.49
2022-08-05T08:40:28.265Z,1012.63
2022-08-05T08:41:51.683Z,1012.57
2022-08-05T08:42:34.084Z,1012.64
2022-08-05T08:45:22.490Z,1012.67
2022-08-05T08:45:23.068Z,1012.67
2022-08-05T08:45:29.678Z,1012.69
2022-08-05T08:46:28.207Z,1012.75
2022-08-05T08:48:06.147Z,1012.70
2022-08-05T08:49:00.965Z,1012.72
2022-08-05T08:50:22.802Z,1012.74
2022-08-05T08:50:33.158Z,1012.73
2022-08-05T08:52:04.248Z,1012.77
2022-08-05T08:52:29.501Z,1012.67
2022-08-05T08:53:28.791Z,1012.66
2022-08-05T08:54:28.114Z,1012.69
2022-08-05T08:56:02.541Z,1012.62
2022-08-05T08:56:34.332Z,1012.61
2022-08-05T08:57:29.316Z,1012.59
2022-08-05T08:58:43.857Z,1012.63
2022-08-05T08:59:33.782Z,1012.61
2022-08-05T09:00:28.072Z,1012.64
2022-08-05T09:01:28.152Z,1012.63
2022-08-05T09:02:28.023Z,1012.64
2022-08-05T09:03:28.016Z,1012.64
2022-08-05T09:04:30.292Z,1012.67
2022-08-05T09:05:38.378Z,1012.70
2022-08-05T09:06:30.270Z,1012.70
2022-08-05T09:07:29.025Z,1012.70
2022-08-05T09:08:30.145Z,1012.76
2022-08-05T09:09:34.849Z,1012.75
2022-08-05T09:10:29.654Z,1012.75
2022-08-05T09:11:50.748Z,1012.78
2022-08-05T09:12:28.922Z,1012.77
2022-08-05T09:13:31.673Z,1012.78
2022-08-05T09:14:57.029Z,1012.80
2022-08-05T09:15:28.869Z,1012.77
2022-08-05T09:16:27.855Z,1012.80
2022-08-05T09:17:40.622Z,1012.81
2022-08-05T09:18:28.845Z,1012.83
2022-08-05T09:19:36.631Z,1012.78
2022-08-05T09:20:37.230Z,1012.81
2022-08-05T09:22:17.608Z,1012.87
2022-08-05T09:22:31.930Z,1012.91
2022-08-05T09:23:28.857Z,1012.90
2022-08-05T09:24:28.780Z,1012.95
2022-08-05T09:26:02.470Z,1012.95
2022-08-05T09:26:30.204Z,1012.95
2022-08-05T09:28:05.292Z,1012.97
2022-08-05T09:28:32.339Z,1013.00
2022-08-05T09:29:31.007Z,1013.04
2022-08-05T09:30:27.716Z,1013.10
2022-08-05T09:32:40.246Z,1013.08
2022-08-05T09:32:42.205Z,1013.18
2022-08-05T09:33:28.694Z,1013.15
2022-08-05T09:34:28.731Z,1013.20
2022-08-05T09:35:27.703Z,1013.20
2022-08-05T09:36:33.412Z,1013.23
2022-08-05T09:38:12.713Z,1013.26
2022-08-05T09:38:29.601Z,1013.30
2022-08-05T09:39:41.362Z,1013.36
2022-08-05T09:40:28.696Z,1013.30
2022-08-05T09:41:27.577Z,1013.34
2022-08-05T09:42:28.718Z,1013.33
2022-08-05T09:43:27.584Z,1013.36
2022-08-05T09:44:28.587Z,1013.37
2022-08-05T09:46:07.137Z,1013.27
2022-08-05T09:46:28.625Z,1013.28
2022-08-05T09:47:36.544Z,1013.32
2022-08-05T09:48:28.549Z,1013.35
2022-08-05T09:49:40.302Z,1013.32
2022-08-05T09:50:37.285Z,1013.35
2022-08-05T09:51:29.416Z,1013.38
2022-08-05T09:52:28.488Z,1013.39
2022-08-05T09:53:53.783Z,1013.43
2022-08-05T09:54:29.309Z,1013.48
2022-08-05T09:55:56.947Z,1013.44
2022-08-05T09:56:28.411Z,1013.45
2022-08-05T09:57:27.506Z,1013.49
2022-08-05T09:58:29.198Z,1013.57
2022-08-05T09:59:27.933Z,1013.52
2022-08-05T10:00:27.590Z,1013.61
2022-08-05T10:01:32.440Z,1013.53
2022-08-05T10:02:28.482Z,1013.54
2022-08-05T10:03:38.752Z,1013.50
2022-08-05T10:04:28.478Z,1013.55
2022-08-05T10:05:27.315Z,1013.55
2022-08-05T10:06:27.347Z,1013.58
2022-08-05T10:08:11.222Z,1013.62
2022-08-05T10:08:35.856Z,1013.61
2022-08-05T10:09:29.553Z,1013.65
2022-08-05T10:10:28.104Z,1013.62
2022-08-05T10:11:29.650Z,1013.65
2022-08-05T10:12:33.254Z,1013.60
2022-08-05T10:13:43.962Z,1013.68
2022-08-05T10:14:28.229Z,1013.69
2022-08-05T10:15:27.208Z,1013.71
2022-08-05T10:16:27.193Z,1013.74
2022-08-05T10:17:37.208Z,1013.74
2022-08-05T10:18:28.173Z,1013.70
2022-08-05T10:20:02.917Z,1013.73
2022-08-05T10:20:28.186Z,1013.73
2022-08-05T10:21:27.135Z,1013.78
2022-08-05T10:22:29.892Z,1013.81
2022-08-05T10:23:55.686Z,1013.79
2022-08-05T10:24:28.613Z,1013.87
2022-08-05T10:25:27.091Z,1013.81
2022-08-05T10:26:31.718Z,1013.84
2022-08-05T10:28:09.528Z,1013.86
2022-08-05T10:28:29.277Z,1013.86
2022-08-05T10:30:06.819Z,1013.80
2022-08-05T10:32:47.699Z,1013.78
2022-08-05T10:32:51.493Z,1013.84
2022-08-05T10:32:53.219Z,1013.90
2022-08-05T10:33:28.849Z,1013.86
2022-08-05T10:34:31.090Z,1013.88
2022-08-05T10:35:33.963Z,1013.87
2022-08-05T10:36:28.015Z,1013.86
2022-08-05T10:37:26.963Z,1013.91
2022-08-05T10:38:28.002Z,1013.92
2022-08-05T10:40:03.813Z,1013.86
2022-08-05T10:40:28.519Z,1013.92
2022-08-05T10:41:26.910Z,1013.94
2022-08-05T10:42:33.934Z,1013.96
2022-08-05T10:43:35.534Z,1013.94
2022-08-05T10:44:27.996Z,1013.92
2022-08-05T10:45:41.983Z,1013.93
2022-08-05T10:46:27.884Z,1013.94
2022-08-05T10:47:31.280Z,1013.96
2022-08-05T10:48:30.990Z,1014.03
2022-08-05T10:49:33.244Z,1014.00
2022-08-05T10:50:35.304Z,1014.04
2022-08-05T10:51:28.850Z,1014.04
2022-08-05T10:52:26.797Z,1014.00
2022-08-05T10:53:26.799Z,1014.04
2022-08-05T10:54:29.900Z,1014.04
2022-08-05T10:55:27.800Z,1014.01
2022-08-05T10:56:26.815Z,1014.04
2022-08-05T10:57:26.732Z,1014.07
2022-08-05T10:58:47.739Z,1014.04
2022-08-05T11:00:02.075Z,1014.07
2022-08-05T11:00:27.736Z,1014.04
2022-08-05T11:01:28.333Z,1014.02
2022-08-05T11:02:37.516Z,1014.02
2022-08-05T11:03:27.734Z,1014.04
2022-08-05T11:04:26.684Z,1014.07
2022-08-05T11:05:29.232Z,1014.00
2022-08-05T11:06:30.813Z,1014.04
2022-08-05T11:07:32.920Z,1014.01
2022-08-05T11:08:37.276Z,1013.97
2022-08-05T11:09:32.491Z,1014.00
2022-08-05T11:10:29.217Z,1014.00
2022-08-05T11:11:44.310Z,1013.97
2022-08-05T11:12:27.575Z,1014.05
2022-08-05T11:13:26.565Z,1014.01
2022-08-05T11:14:49.442Z,1014.00
2022-08-05T11:15:44.030Z,1014.00
2022-08-05T11:16:47.498Z,1014.05
2022-08-05T11:18:00.250Z,1014.03
2022-08-05T11:18:27.567Z,1014.01
2022-08-05T11:20:11.501Z,1013.95
2022-08-05T11:20:27.470Z,1013.98
2022-08-05T11:21:26.544Z,1013.97
2022-08-05T11:22:26.446Z,1014.03
2022-08-05T11:23:26.446Z,1014.06
2022-08-05T11:24:30.545Z,1014.06
2022-08-05T11:26:06.005Z,1014.05
2022-08-05T11:26:32.211Z,1014.07
2022-08-05T11:27:27.414Z,1014.11
2022-08-05T11:28:27.457Z,1014.07
2022-08-05T11:29:26.416Z,1014.11
2022-08-05T11:30:26.462Z,1014.12
2022-08-05T11:31:53.965Z,1014.15
2022-08-05T11:32:27.427Z,1014.16
2022-08-05T11:33:34.596Z,1014.16
2022-08-05T11:34:27.335Z,1014.16
2022-08-05T11:35:26.316Z,1014.13
2022-08-05T11:36:34.440Z,1014.16
2022-08-05T11:38:30.851Z,1014.19
2022-08-05T11:38:36.875Z,1014.21
2022-08-05T11:39:27.382Z,1014.15
2022-08-05T11:40:26.296Z,1014.23
2022-08-05T11:41:57.912Z,1014.21
2022-08-05T11:42:27.949Z,1014.18
2022-08-05T11:44:04.444Z,1014.17
2022-08-05T11:44:52.979Z,1014.14
2022-08-05T11:46:15.278Z,1014.14
2022-08-05T11:46:32.620Z,1014.16
2022-08-05T11:47:49.027Z,1014.20
2022-08-05T11:48:27.480Z,1014.22
2022-08-05T11:49:26.204Z,1014.20
2022-08-05T11:50:26.211Z,1014.21
2022-08-05T11:51:43.798Z,1014.26
2022-08-05T11:52:29.691Z,1014.24
2022-08-05T11:53:26.138Z,1014.22
2022-08-05T11:54:33.284Z,1014.22
2022-08-05T11:55:31.746Z,1014.21
2022-08-05T11:56:40.652Z,1014.23
2022-08-05T11:57:27.316Z,1014.20
2022-08-05T11:58:26.138Z,1014.21
2022-08-05T11:59:26.072Z,1014.19
2022-08-05T12:00:27.551Z,1014.21
2022-08-05T12:01:26.052Z,1014.24
2022-08-05T12:02:30.475Z,1014.23
2022-08-05T12:03:29.076Z,1014.27
2022-08-05T12:04:26.042Z,1014.24
2022-08-05T12:05:32.278Z,1014.24